sensor_id;sensor_type;location;lat;lon;timestamp;temperature;humidity
3416;DHT22;1721;51.238;9.562;2023-07-30T00:00:43;19.40;98.10
3416;DHT22;1721;51.238;9.562;2023-07-30T00:03:09;19.30;98.00
3416;DHT22;1721;51.238;9.562;2023-07-30T00:05:34;19.20;98.00
3416;DHT22;1721;51.238;9.562;2023-07-30T00:08:00;19.30;98.10
3416;DHT22;1721;51.238;9.562;2023-07-30T00:10:25;19.10;98.10
3416;DHT22;1721;51.238;9.562;2023-07-30T00:12:51;19.00;98.10
3416;DHT22;1721;51.238;9.562;2023-07-30T00:15:16;19.00;98.20
3416;DHT22;1721;51.238;9.562;2023-07-30T00:17:42;18.90;98.30
3416;DHT22;1721;51.238;9.562;2023-07-30T00:20:08;18.80;98.40
3416;DHT22;1721;51.238;9.562;2023-07-30T00:22:34;18.80;98.50
3416;DHT22;1721;51.238;9.562;2023-07-30T00:24:59;18.70;98.70
3416;DHT22;1721;51.238;9.562;2023-07-30T00:27:25;18.70;98.70
3416;DHT22;1721;51.238;9.562;2023-07-30T00:29:51;18.60;99.10
3416;DHT22;1721;51.238;9.562;2023-07-30T00:32:16;18.60;98.90
3416;DHT22;1721;51.238;9.562;2023-07-30T00:34:43;18.60;99.00
3416;DHT22;1721;51.238;9.562;2023-07-30T00:37:08;18.60;99.10
3416;DHT22;1721;51.238;9.562;2023-07-30T00:39:34;18.60;99.20
3416;DHT22;1721;51.238;9.562;2023-07-30T00:41:59;18.60;99.40
3416;DHT22;1721;51.238;9.562;2023-07-30T00:44:25;18.60;99.50
3416;DHT22;1721;51.238;9.562;2023-07-30T00:46:50;18.60;99.60
3416;DHT22;1721;51.238;9.562;2023-07-30T00:49:16;18.60;99.70
3416;DHT22;1721;51.238;9.562;2023-07-30T00:51:42;18.60;99.90
3416;DHT22;1721;51.238;9.562;2023-07-30T00:54:09;18.70;99.90
3416;DHT22;1721;51.238;9.562;2023-07-30T00:56:35;18.70;99.90
3416;DHT22;1721;51.238;9.562;2023-07-30T00:59:01;18.70;99.90
3416;DHT22;1721;51.238;9.562;2023-07-30T01:01:27;18.70;99.90
3416;DHT22;1721;51.238;9.562;2023-07-30T01:03:54;18.70;99.90
3416;DHT22;1721;51.238;9.562;2023-07-30T01:06:19;18.70;99.90
3416;DHT22;1721;51.238;9.562;2023-07-30T01:08:46;18.70;99.80
3416;DHT22;1721;51.238;9.562;2023-07-30T01:11:12;18.70;99.80
3416;DHT22;1721;51.238;9.562;2023-07-30T01:13:39;18.70;99.90
3416;DHT22;1721;51.238;9.562;2023-07-30T01:16:04;18.70;99.90
3416;DHT22;1721;51.238;9.562;2023-07-30T01:18:32;18.70;99.90
3416;DHT22;1721;51.238;9.562;2023-07-30T01:20:58;18.60;99.80
3416;DHT22;1721;51.238;9.562;2023-07-30T01:23:24;18.60;99.90
3416;DHT22;1721;51.238;9.562;2023-07-30T01:26:19;18.50;99.90
3416;DHT22;1721;51.238;9.562;2023-07-30T01:28:48;18.50;99.90
3416;DHT22;1721;51.238;9.562;2023-07-30T01:31:16;18.40;99.90
3416;DHT22;1721;51.238;9.562;2023-07-30T01:33:42;18.30;99.90
3416;DHT22;1721;51.238;9.562;2023-07-30T01:36:11;18.30;99.90
3416;DHT22;1721;51.238;9.562;2023-07-30T01:38:40;18.20;99.90
3416;DHT22;1721;51.238;9.562;2023-07-30T01:41:06;18.20;99.90
3416;DHT22;1721;51.238;9.562;2023-07-30T01:43:32;18.20;99.90
3416;DHT22;1721;51.238;9.562;2023-07-30T01:45:57;18.20;99.90
3416;DHT22;1721;51.238;9.562;2023-07-30T01:48:23;18.10;99.90
3416;DHT22;1721;51.238;9.562;2023-07-30T01:50:49;18.10;99.90
3416;DHT22;1721;51.238;9.562;2023-07-30T01:53:14;18.10;99.90
3416;DHT22;1721;51.238;9.562;2023-07-30T01:55:40;18.10;99.90
3416;DHT22;1721;51.238;9.562;2023-07-30T01:58:09;18.10;99.90
3416;DHT22;1721;51.238;9.562;2023-07-30T02:00:35;18.10;99.90
3416;DHT22;1721;51.238;9.562;2023-07-30T02:03:00;18.10;99.90
3416;DHT22;1721;51.238;9.562;2023-07-30T02:05:26;18.10;99.90
3416;DHT22;1721;51.238;9.562;2023-07-30T02:07:52;18.00;99.90
3416;DHT22;1721;51.238;9.562;2023-07-30T02:10:17;18.00;99.90
3416;DHT22;1721;51.238;9.562;2023-07-30T02:12:43;18.00;99.90
3416;DHT22;1721;51.238;9.562;2023-07-30T02:15:08;18.00;99.90
3416;DHT22;1721;51.238;9.562;2023-07-30T02:17:34;18.00;99.90
3416;DHT22;1721;51.238;9.562;2023-07-30T02:20:00;17.90;99.90
3416;DHT22;1721;51.238;9.562;2023-07-30T02:22:25;17.90;99.90
3416;DHT22;1721;51.238;9.562;2023-07-30T02:24:51;17.90;99.90
3416;DHT22;1721;51.238;9.562;2023-07-30T02:27:16;17.80;99.90
3416;DHT22;1721;51.238;9.562;2023-07-30T02:29:42;17.80;99.90
3416;DHT22;1721;51.238;9.562;2023-07-30T02:32:08;17.70;99.90
3416;DHT22;1721;51.238;9.562;2023-07-30T02:34:34;17.70;99.90
3416;DHT22;1721;51.238;9.562;2023-07-30T02:36:59;17.70;99.90
3416;DHT22;1721;51.238;9.562;2023-07-30T02:39:25;17.60;99.90
3416;DHT22;1721;51.238;9.562;2023-07-30T02:41:50;17.60;99.90
3416;DHT22;1721;51.238;9.562;2023-07-30T02:44:26;17.50;99.90
3416;DHT22;1721;51.238;9.562;2023-07-30T02:46:51;17.50;99.90
3416;DHT22;1721;51.238;9.562;2023-07-30T02:49:17;17.40;99.90
3416;DHT22;1721;51.238;9.562;2023-07-30T02:51:42;17.40;99.90
3416;DHT22;1721;51.238;9.562;2023-07-30T02:54:14;17.40;99.90
3416;DHT22;1721;51.238;9.562;2023-07-30T02:56:39;17.40;99.90
3416;DHT22;1721;51.238;9.562;2023-07-30T02:59:05;17.30;99.90
3416;DHT22;1721;51.238;9.562;2023-07-30T03:01:30;17.30;99.90
3416;DHT22;1721;51.238;9.562;2023-07-30T03:03:56;17.30;99.90
3416;DHT22;1721;51.238;9.562;2023-07-30T03:06:21;17.30;99.90
3416;DHT22;1721;51.238;9.562;2023-07-30T03:08:47;17.30;99.90
3416;DHT22;1721;51.238;9.562;2023-07-30T03:11:12;17.30;99.90
3416;DHT22;1721;51.238;9.562;2023-07-30T03:13:39;17.30;99.90
3416;DHT22;1721;51.238;9.562;2023-07-30T03:16:04;17.30;99.90
3416;DHT22;1721;51.238;9.562;2023-07-30T03:18:30;17.30;99.90
3416;DHT22;1721;51.238;9.562;2023-07-30T03:21:02;17.30;99.90
3416;DHT22;1721;51.238;9.562;2023-07-30T03:23:28;17.30;99.90
3416;DHT22;1721;51.238;9.562;2023-07-30T03:25:54;17.30;99.90
3416;DHT22;1721;51.238;9.562;2023-07-30T03:28:20;17.30;99.90
3416;DHT22;1721;51.238;9.562;2023-07-30T03:30:45;17.40;99.90
3416;DHT22;1721;51.238;9.562;2023-07-30T03:33:11;17.40;99.90
3416;DHT22;1721;51.238;9.562;2023-07-30T03:35:36;17.40;99.90
3416;DHT22;1721;51.238;9.562;2023-07-30T03:38:02;17.50;99.90
3416;DHT22;1721;51.238;9.562;2023-07-30T03:40:28;17.50;99.90
3416;DHT22;1721;51.238;9.562;2023-07-30T03:42:53;17.60;99.90
3416;DHT22;1721;51.238;9.562;2023-07-30T03:45:19;17.60;99.90
3416;DHT22;1721;51.238;9.562;2023-07-30T03:47:45;17.60;99.90
3416;DHT22;1721;51.238;9.562;2023-07-30T03:50:10;17.60;99.90
3416;DHT22;1721;51.238;9.562;2023-07-30T03:52:36;17.60;99.90
3416;DHT22;1721;51.238;9.562;2023-07-30T03:55:01;17.60;99.90
3416;DHT22;1721;51.238;9.562;2023-07-30T03:57:27;17.60;99.90
3416;DHT22;1721;51.238;9.562;2023-07-30T03:59:52;17.60;99.90
3416;DHT22;1721;51.238;9.562;2023-07-30T04:02:18;17.70;99.90
3416;DHT22;1721;51.238;9.562;2023-07-30T04:04:43;17.80;99.90
3416;DHT22;1721;51.238;9.562;2023-07-30T04:07:11;17.80;99.90
3416;DHT22;1721;51.238;9.562;2023-07-30T04:09:37;17.90;99.90
3416;DHT22;1721;51.238;9.562;2023-07-30T04:12:02;17.90;99.90
3416;DHT22;1721;51.238;9.562;2023-07-30T04:14:28;17.90;99.90
3416;DHT22;1721;51.238;9.562;2023-07-30T04:16:53;18.00;99.90
3416;DHT22;1721;51.238;9.562;2023-07-30T04:19:19;18.00;99.90
3416;DHT22;1721;51.238;9.562;2023-07-30T04:21:45;18.00;99.90
3416;DHT22;1721;51.238;9.562;2023-07-30T04:24:10;17.90;99.90
3416;DHT22;1721;51.238;9.562;2023-07-30T04:26:36;18.00;99.90
3416;DHT22;1721;51.238;9.562;2023-07-30T04:29:01;18.10;99.90
3416;DHT22;1721;51.238;9.562;2023-07-30T04:31:27;18.10;99.90
3416;DHT22;1721;51.238;9.562;2023-07-30T04:33:52;18.10;99.90
3416;DHT22;1721;51.238;9.562;2023-07-30T04:36:18;18.20;99.90
3416;DHT22;1721;51.238;9.562;2023-07-30T04:38:43;18.20;99.90
3416;DHT22;1721;51.238;9.562;2023-07-30T04:41:09;18.30;99.90
3416;DHT22;1721;51.238;9.562;2023-07-30T04:43:34;18.30;99.90
3416;DHT22;1721;51.238;9.562;2023-07-30T04:46:00;18.40;99.90
3416;DHT22;1721;51.238;9.562;2023-07-30T04:48:25;18.40;99.90
3416;DHT22;1721;51.238;9.562;2023-07-30T04:50:51;18.50;99.90
3416;DHT22;1721;51.238;9.562;2023-07-30T04:53:17;18.50;99.90
3416;DHT22;1721;51.238;9.562;2023-07-30T04:55:43;18.50;99.90
3416;DHT22;1721;51.238;9.562;2023-07-30T04:58:10;18.60;99.90
3416;DHT22;1721;51.238;9.562;2023-07-30T05:00:35;18.50;99.90
3416;DHT22;1721;51.238;9.562;2023-07-30T05:03:01;18.50;99.90
3416;DHT22;1721;51.238;9.562;2023-07-30T05:05:26;18.60;99.90
3416;DHT22;1721;51.238;9.562;2023-07-30T05:07:52;18.70;99.90
3416;DHT22;1721;51.238;9.562;2023-07-30T05:10:17;18.60;99.90
3416;DHT22;1721;51.238;9.562;2023-07-30T05:12:43;18.70;99.90
3416;DHT22;1721;51.238;9.562;2023-07-30T05:15:09;18.80;99.90
3416;DHT22;1721;51.238;9.562;2023-07-30T05:17:34;18.90;99.90
3416;DHT22;1721;51.238;9.562;2023-07-30T05:20:00;19.00;99.90
3416;DHT22;1721;51.238;9.562;2023-07-30T05:22:25;19.30;99.90
3416;DHT22;1721;51.238;9.562;2023-07-30T05:24:51;19.50;99.90
3416;DHT22;1721;51.238;9.562;2023-07-30T05:27:16;19.90;99.90
3416;DHT22;1721;51.238;9.562;2023-07-30T05:29:42;20.20;99.90
3416;DHT22;1721;51.238;9.562;2023-07-30T05:32:08;20.20;99.90
3416;DHT22;1721;51.238;9.562;2023-07-30T05:34:34;20.40;99.80
3416;DHT22;1721;51.238;9.562;2023-07-30T05:36:59;20.40;99.20
3416;DHT22;1721;51.238;9.562;2023-07-30T05:39:25;20.60;99.50
3416;DHT22;1721;51.238;9.562;2023-07-30T05:41:51;20.80;99.20
3416;DHT22;1721;51.238;9.562;2023-07-30T05:44:17;21.30;98.80
3416;DHT22;1721;51.238;9.562;2023-07-30T05:46:43;21.60;97.50
3416;DHT22;1721;51.238;9.562;2023-07-30T05:49:08;21.70;97.20
3416;DHT22;1721;51.238;9.562;2023-07-30T05:51:34;21.60;96.70
3416;DHT22;1721;51.238;9.562;2023-07-30T05:53:59;21.80;96.30
3416;DHT22;1721;51.238;9.562;2023-07-30T05:56:25;22.00;95.70
3416;DHT22;1721;51.238;9.562;2023-07-30T05:58:50;22.00;95.90
3416;DHT22;1721;51.238;9.562;2023-07-30T06:01:16;21.90;95.40
3416;DHT22;1721;51.238;9.562;2023-07-30T06:03:42;21.90;95.40
3416;DHT22;1721;51.238;9.562;2023-07-30T06:06:08;21.90;95.20
3416;DHT22;1721;51.238;9.562;2023-07-30T06:08:33;22.00;95.30
3416;DHT22;1721;51.238;9.562;2023-07-30T06:11:02;21.90;94.90
3416;DHT22;1721;51.238;9.562;2023-07-30T06:13:31;21.90;94.90
3416;DHT22;1721;51.238;9.562;2023-07-30T06:15:56;21.80;95.00
3416;DHT22;1721;51.238;9.562;2023-07-30T06:18:22;21.90;94.90
3416;DHT22;1721;51.238;9.562;2023-07-30T06:20:48;21.80;94.50
3416;DHT22;1721;51.238;9.562;2023-07-30T06:23:14;21.70;94.80
3416;DHT22;1721;51.238;9.562;2023-07-30T06:25:40;21.70;94.70
3416;DHT22;1721;51.238;9.562;2023-07-30T06:28:05;21.60;94.70
3416;DHT22;1721;51.238;9.562;2023-07-30T06:30:34;21.60;94.80
3416;DHT22;1721;51.238;9.562;2023-07-30T06:33:02;21.60;94.60
3416;DHT22;1721;51.238;9.562;2023-07-30T06:35:27;21.60;94.60
3416;DHT22;1721;51.238;9.562;2023-07-30T06:37:53;21.70;94.90
3416;DHT22;1721;51.238;9.562;2023-07-30T06:40:18;21.80;94.50
3416;DHT22;1721;51.238;9.562;2023-07-30T06:42:44;22.00;95.00
3416;DHT22;1721;51.238;9.562;2023-07-30T06:45:09;22.20;93.90
3416;DHT22;1721;51.238;9.562;2023-07-30T06:47:35;22.30;94.30
3416;DHT22;1721;51.238;9.562;2023-07-30T06:50:01;22.60;94.50
3416;DHT22;1721;51.238;9.562;2023-07-30T06:52:26;22.60;93.90
3416;DHT22;1721;51.238;9.562;2023-07-30T06:54:52;22.70;94.30
3416;DHT22;1721;51.238;9.562;2023-07-30T06:57:17;22.70;93.90
3416;DHT22;1721;51.238;9.562;2023-07-30T06:59:43;22.70;93.20
3416;DHT22;1721;51.238;9.562;2023-07-30T07:02:08;22.70;93.40
3416;DHT22;1721;51.238;9.562;2023-07-30T07:04:34;22.70;93.20
3416;DHT22;1721;51.238;9.562;2023-07-30T07:06:59;22.60;93.10
3416;DHT22;1721;51.238;9.562;2023-07-30T07:09:28;22.70;93.40
3416;DHT22;1721;51.238;9.562;2023-07-30T07:11:54;22.40;92.30
3416;DHT22;1721;51.238;9.562;2023-07-30T07:14:19;22.20;92.90
3416;DHT22;1721;51.238;9.562;2023-07-30T07:16:45;22.20;93.20
3416;DHT22;1721;51.238;9.562;2023-07-30T07:19:10;22.10;93.00
3416;DHT22;1721;51.238;9.562;2023-07-30T07:21:36;22.10;93.90
3416;DHT22;1721;51.238;9.562;2023-07-30T07:24:02;22.10;93.90
3416;DHT22;1721;51.238;9.562;2023-07-30T07:26:27;22.30;93.90
3416;DHT22;1721;51.238;9.562;2023-07-30T07:28:55;22.40;93.60
3416;DHT22;1721;51.238;9.562;2023-07-30T07:31:21;22.40;93.50
3416;DHT22;1721;51.238;9.562;2023-07-30T07:33:46;22.60;93.50
3416;DHT22;1721;51.238;9.562;2023-07-30T07:36:12;22.50;93.70
3416;DHT22;1721;51.238;9.562;2023-07-30T07:38:39;22.60;93.50
3416;DHT22;1721;51.238;9.562;2023-07-30T07:41:05;22.60;93.50
3416;DHT22;1721;51.238;9.562;2023-07-30T07:43:30;22.80;94.30
3416;DHT22;1721;51.238;9.562;2023-07-30T07:45:56;23.00;93.70
3416;DHT22;1721;51.238;9.562;2023-07-30T07:48:21;23.20;94.00
3416;DHT22;1721;51.238;9.562;2023-07-30T07:50:47;23.40;93.10
3416;DHT22;1721;51.238;9.562;2023-07-30T07:53:12;23.60;92.90
3416;DHT22;1721;51.238;9.562;2023-07-30T07:55:38;23.70;93.10
3416;DHT22;1721;51.238;9.562;2023-07-30T07:58:03;23.60;92.90
3416;DHT22;1721;51.238;9.562;2023-07-30T08:00:29;23.60;92.30
3416;DHT22;1721;51.238;9.562;2023-07-30T08:02:54;23.40;92.20
3416;DHT22;1721;51.238;9.562;2023-07-30T08:05:23;23.50;92.30
3416;DHT22;1721;51.238;9.562;2023-07-30T08:07:50;23.40;92.10
3416;DHT22;1721;51.238;9.562;2023-07-30T08:10:16;23.50;91.60
3416;DHT22;1721;51.238;9.562;2023-07-30T08:12:42;23.50;91.50
3416;DHT22;1721;51.238;9.562;2023-07-30T08:15:07;23.40;91.20
3416;DHT22;1721;51.238;9.562;2023-07-30T08:17:33;23.30;92.00
3416;DHT22;1721;51.238;9.562;2023-07-30T08:19:58;23.40;91.80
3416;DHT22;1721;51.238;9.562;2023-07-30T08:22:24;23.50;91.50
3416;DHT22;1721;51.238;9.562;2023-07-30T08:24:49;23.60;91.70
3416;DHT22;1721;51.238;9.562;2023-07-30T08:27:15;23.50;91.30
3416;DHT22;1721;51.238;9.562;2023-07-30T08:29:41;23.50;90.90
3416;DHT22;1721;51.238;9.562;2023-07-30T08:32:06;23.40;91.10
3416;DHT22;1721;51.238;9.562;2023-07-30T08:34:32;23.50;91.30
3416;DHT22;1721;51.238;9.562;2023-07-30T08:36:57;23.60;91.10
3416;DHT22;1721;51.238;9.562;2023-07-30T08:39:23;23.90;91.20
3416;DHT22;1721;51.238;9.562;2023-07-30T08:41:48;23.80;90.80
3416;DHT22;1721;51.238;9.562;2023-07-30T08:44:14;23.50;90.50
3416;DHT22;1721;51.238;9.562;2023-07-30T08:46:40;23.20;90.70
3416;DHT22;1721;51.238;9.562;2023-07-30T08:49:05;22.90;91.40
3416;DHT22;1721;51.238;9.562;2023-07-30T08:51:31;22.70;91.70
3416;DHT22;1721;51.238;9.562;2023-07-30T08:54:00;22.60;91.70
3416;DHT22;1721;51.238;9.562;2023-07-30T08:56:26;22.50;92.00
3416;DHT22;1721;51.238;9.562;2023-07-30T08:58:53;22.50;92.20
3416;DHT22;1721;51.238;9.562;2023-07-30T09:01:22;22.60;92.20
3416;DHT22;1721;51.238;9.562;2023-07-30T09:03:50;22.50;92.40
3416;DHT22;1721;51.238;9.562;2023-07-30T09:06:18;22.40;92.80
3416;DHT22;1721;51.238;9.562;2023-07-30T09:08:43;22.40;92.90
3416;DHT22;1721;51.238;9.562;2023-07-30T09:11:10;22.20;93.20
3416;DHT22;1721;51.238;9.562;2023-07-30T09:13:40;22.20;93.20
3416;DHT22;1721;51.238;9.562;2023-07-30T09:16:13;21.90;94.00
3416;DHT22;1721;51.238;9.562;2023-07-30T09:18:40;21.70;94.70
3416;DHT22;1721;51.238;9.562;2023-07-30T09:21:06;21.40;95.40
3416;DHT22;1721;51.238;9.562;2023-07-30T09:23:31;21.20;96.10
3416;DHT22;1721;51.238;9.562;2023-07-30T09:26:00;20.90;96.70
3416;DHT22;1721;51.238;9.562;2023-07-30T09:28:31;20.60;97.00
3416;DHT22;1721;51.238;9.562;2023-07-30T09:31:01;20.50;97.70
3416;DHT22;1721;51.238;9.562;2023-07-30T09:33:27;20.40;98.50
3416;DHT22;1721;51.238;9.562;2023-07-30T09:35:53;20.30;99.50
3416;DHT22;1721;51.238;9.562;2023-07-30T09:38:19;20.40;99.70
3416;DHT22;1721;51.238;9.562;2023-07-30T09:40:45;20.40;99.80
3416;DHT22;1721;51.238;9.562;2023-07-30T09:43:14;20.50;99.80
3416;DHT22;1721;51.238;9.562;2023-07-30T09:45:43;20.60;99.90
3416;DHT22;1721;51.238;9.562;2023-07-30T09:48:09;20.70;99.40
3416;DHT22;1721;51.238;9.562;2023-07-30T09:50:38;20.60;99.40
3416;DHT22;1721;51.238;9.562;2023-07-30T09:53:04;20.50;99.10
3416;DHT22;1721;51.238;9.562;2023-07-30T09:55:30;20.50;99.50
3416;DHT22;1721;51.238;9.562;2023-07-30T09:57:56;20.40;99.80
3416;DHT22;1721;51.238;9.562;2023-07-30T10:00:22;20.40;99.90
3416;DHT22;1721;51.238;9.562;2023-07-30T10:02:49;20.40;99.90
3416;DHT22;1721;51.238;9.562;2023-07-30T10:05:19;20.50;99.90
3416;DHT22;1721;51.238;9.562;2023-07-30T10:07:56;20.50;99.90
3416;DHT22;1721;51.238;9.562;2023-07-30T10:10:24;20.50;99.90
3416;DHT22;1721;51.238;9.562;2023-07-30T10:12:51;20.40;99.90
3416;DHT22;1721;51.238;9.562;2023-07-30T10:15:19;20.50;99.90
3416;DHT22;1721;51.238;9.562;2023-07-30T10:17:50;20.60;99.90
3416;DHT22;1721;51.238;9.562;2023-07-30T10:20:26;20.70;99.90
3416;DHT22;1721;51.238;9.562;2023-07-30T10:22:59;20.90;99.90
3416;DHT22;1721;51.238;9.562;2023-07-30T10:25:43;21.00;99.90
3416;DHT22;1721;51.238;9.562;2023-07-30T10:28:26;21.10;99.90
3416;DHT22;1721;51.238;9.562;2023-07-30T10:30:56;21.10;99.30
3416;DHT22;1721;51.238;9.562;2023-07-30T10:33:22;21.10;99.50
3416;DHT22;1721;51.238;9.562;2023-07-30T10:35:48;21.00;99.20
3416;DHT22;1721;51.238;9.562;2023-07-30T10:38:22;21.00;99.40
3416;DHT22;1721;51.238;9.562;2023-07-30T10:41:19;21.00;99.40
3416;DHT22;1721;51.238;9.562;2023-07-30T10:43:50;20.90;99.30
3416;DHT22;1721;51.238;9.562;2023-07-30T10:46:17;20.90;99.50
3416;DHT22;1721;51.238;9.562;2023-07-30T10:48:45;20.90;99.50
3416;DHT22;1721;51.238;9.562;2023-07-30T10:51:16;21.00;99.50
3416;DHT22;1721;51.238;9.562;2023-07-30T10:53:45;20.80;99.70
3416;DHT22;1721;51.238;9.562;2023-07-30T10:56:12;20.50;99.60
3416;DHT22;1721;51.238;9.562;2023-07-30T10:58:39;20.40;99.70
3416;DHT22;1721;51.238;9.562;2023-07-30T11:01:06;20.00;99.30
3416;DHT22;1721;51.238;9.562;2023-07-30T11:03:32;19.50;99.50
3416;DHT22;1721;51.238;9.562;2023-07-30T11:05:59;19.20;99.90
3416;DHT22;1721;51.238;9.562;2023-07-30T11:08:40;18.90;99.90
3416;DHT22;1721;51.238;9.562;2023-07-30T11:11:08;18.70;99.90
3416;DHT22;1721;51.238;9.562;2023-07-30T11:13:39;18.40;99.90
3416;DHT22;1721;51.238;9.562;2023-07-30T11:16:07;18.30;99.90
3416;DHT22;1721;51.238;9.562;2023-07-30T11:18:33;18.00;99.90
3416;DHT22;1721;51.238;9.562;2023-07-30T11:21:12;17.90;99.90
3416;DHT22;1721;51.238;9.562;2023-07-30T11:23:40;18.00;99.90
3416;DHT22;1721;51.238;9.562;2023-07-30T11:26:08;18.10;99.90
3416;DHT22;1721;51.238;9.562;2023-07-30T11:28:38;18.20;99.90
3416;DHT22;1721;51.238;9.562;2023-07-30T11:33:34;18.70;99.90
3416;DHT22;1721;51.238;9.562;2023-07-30T11:36:01;18.90;99.90
3416;DHT22;1721;51.238;9.562;2023-07-30T11:38:28;19.20;99.90
3416;DHT22;1721;51.238;9.562;2023-07-30T11:40:54;19.50;99.90
3416;DHT22;1721;51.238;9.562;2023-07-30T11:43:21;19.80;99.90
3416;DHT22;1721;51.238;9.562;2023-07-30T11:45:47;20.20;99.90
3416;DHT22;1721;51.238;9.562;2023-07-30T11:48:13;20.50;99.90
3416;DHT22;1721;51.238;9.562;2023-07-30T11:50:49;20.70;99.90
3416;DHT22;1721;51.238;9.562;2023-07-30T11:53:15;21.00;99.90
3416;DHT22;1721;51.238;9.562;2023-07-30T11:55:41;21.20;99.60
3416;DHT22;1721;51.238;9.562;2023-07-30T11:58:09;21.30;99.20
3416;DHT22;1721;51.238;9.562;2023-07-30T12:00:36;21.50;99.00
3416;DHT22;1721;51.238;9.562;2023-07-30T12:03:03;21.60;98.90
3416;DHT22;1721;51.238;9.562;2023-07-30T12:05:33;21.60;98.60
3416;DHT22;1721;51.238;9.562;2023-07-30T12:08:00;21.60;98.10
3416;DHT22;1721;51.238;9.562;2023-07-30T12:10:28;21.60;98.00
3416;DHT22;1721;51.238;9.562;2023-07-30T12:13:11;21.60;97.60
3416;DHT22;1721;51.238;9.562;2023-07-30T12:15:37;21.70;97.60
3416;DHT22;1721;51.238;9.562;2023-07-30T12:18:02;21.90;97.50
3416;DHT22;1721;51.238;9.562;2023-07-30T12:20:28;21.90;97.60
3416;DHT22;1721;51.238;9.562;2023-07-30T12:22:54;22.10;97.90
3416;DHT22;1721;51.238;9.562;2023-07-30T12:25:19;22.50;97.70
3416;DHT22;1721;51.238;9.562;2023-07-30T12:27:45;22.60;96.10
3416;DHT22;1721;51.238;9.562;2023-07-30T12:30:11;22.50;96.30
3416;DHT22;1721;51.238;9.562;2023-07-30T12:32:36;22.50;97.00
3416;DHT22;1721;51.238;9.562;2023-07-30T12:35:02;22.70;96.40
3416;DHT22;1721;51.238;9.562;2023-07-30T12:37:27;22.80;96.20
3416;DHT22;1721;51.238;9.562;2023-07-30T12:39:53;22.90;95.60
3416;DHT22;1721;51.238;9.562;2023-07-30T12:42:18;22.90;94.90
3416;DHT22;1721;51.238;9.562;2023-07-30T12:44:44;22.90;94.80
3416;DHT22;1721;51.238;9.562;2023-07-30T12:47:09;22.70;94.00
3416;DHT22;1721;51.238;9.562;2023-07-30T12:49:35;22.70;94.70
3416;DHT22;1721;51.238;9.562;2023-07-30T12:52:00;22.60;94.90
3416;DHT22;1721;51.238;9.562;2023-07-30T12:54:26;22.80;95.20
3416;DHT22;1721;51.238;9.562;2023-07-30T12:56:52;22.90;94.70
3416;DHT22;1721;51.238;9.562;2023-07-30T12:59:17;23.10;94.60
3416;DHT22;1721;51.238;9.562;2023-07-30T13:01:43;23.00;93.00
3416;DHT22;1721;51.238;9.562;2023-07-30T13:04:08;23.00;94.00
3416;DHT22;1721;51.238;9.562;2023-07-30T13:06:34;23.10;94.30
3416;DHT22;1721;51.238;9.562;2023-07-30T13:08:59;23.10;94.10
3416;DHT22;1721;51.238;9.562;2023-07-30T13:11:25;23.10;93.60
3416;DHT22;1721;51.238;9.562;2023-07-30T13:13:50;22.90;93.60
3416;DHT22;1721;51.238;9.562;2023-07-30T13:16:16;22.60;93.30
3416;DHT22;1721;51.238;9.562;2023-07-30T13:18:41;22.60;94.70
3416;DHT22;1721;51.238;9.562;2023-07-30T13:21:07;22.30;93.60
3416;DHT22;1721;51.238;9.562;2023-07-30T13:23:32;22.10;93.20
3416;DHT22;1721;51.238;9.562;2023-07-30T13:25:58;22.10;94.10
3416;DHT22;1721;51.238;9.562;2023-07-30T13:28:23;21.90;92.60
3416;DHT22;1721;51.238;9.562;2023-07-30T13:30:49;21.90;93.00
3416;DHT22;1721;51.238;9.562;2023-07-30T13:33:16;21.90;93.30
3416;DHT22;1721;51.238;9.562;2023-07-30T13:35:41;22.20;93.40
3416;DHT22;1721;51.238;9.562;2023-07-30T13:38:07;22.30;93.50
3416;DHT22;1721;51.238;9.562;2023-07-30T13:40:32;22.50;92.10
3416;DHT22;1721;51.238;9.562;2023-07-30T13:42:58;22.40;92.10
3416;DHT22;1721;51.238;9.562;2023-07-30T13:45:23;22.50;92.20
3416;DHT22;1721;51.238;9.562;2023-07-30T13:47:49;22.70;92.10
3416;DHT22;1721;51.238;9.562;2023-07-30T13:50:14;22.80;91.80
3416;DHT22;1721;51.238;9.562;2023-07-30T13:52:40;22.80;91.20
3416;DHT22;1721;51.238;9.562;2023-07-30T13:55:06;22.90;90.50
3416;DHT22;1721;51.238;9.562;2023-07-30T13:57:32;22.90;90.50
3416;DHT22;1721;51.238;9.562;2023-07-30T13:59:57;23.10;87.80
3416;DHT22;1721;51.238;9.562;2023-07-30T14:02:23;23.10;86.20
3416;DHT22;1721;51.238;9.562;2023-07-30T14:04:48;23.30;87.60
3416;DHT22;1721;51.238;9.562;2023-07-30T14:07:14;23.40;84.60
3416;DHT22;1721;51.238;9.562;2023-07-30T14:09:40;23.30;83.80
3416;DHT22;1721;51.238;9.562;2023-07-30T14:12:06;23.10;80.20
3416;DHT22;1721;51.238;9.562;2023-07-30T14:14:32;22.70;83.10
3416;DHT22;1721;51.238;9.562;2023-07-30T14:16:57;22.60;86.70
3416;DHT22;1721;51.238;9.562;2023-07-30T14:19:23;22.50;83.80
3416;DHT22;1721;51.238;9.562;2023-07-30T14:21:48;22.60;83.70
3416;DHT22;1721;51.238;9.562;2023-07-30T14:24:14;22.70;82.60
3416;DHT22;1721;51.238;9.562;2023-07-30T14:26:40;22.80;83.70
3416;DHT22;1721;51.238;9.562;2023-07-30T14:29:05;23.00;85.60
3416;DHT22;1721;51.238;9.562;2023-07-30T14:31:31;23.20;83.10
3416;DHT22;1721;51.238;9.562;2023-07-30T14:33:56;23.40;82.80
3416;DHT22;1721;51.238;9.562;2023-07-30T14:36:23;23.60;82.50
3416;DHT22;1721;51.238;9.562;2023-07-30T14:38:48;23.60;79.00
3416;DHT22;1721;51.238;9.562;2023-07-30T14:41:14;23.20;80.70
3416;DHT22;1721;51.238;9.562;2023-07-30T14:43:39;22.70;80.70
3416;DHT22;1721;51.238;9.562;2023-07-30T14:46:05;22.70;83.00
3416;DHT22;1721;51.238;9.562;2023-07-30T14:48:31;22.80;82.80
3416;DHT22;1721;51.238;9.562;2023-07-30T14:50:56;22.70;81.10
3416;DHT22;1721;51.238;9.562;2023-07-30T14:53:22;22.60;81.10
3416;DHT22;1721;51.238;9.562;2023-07-30T14:55:47;22.50;79.80
3416;DHT22;1721;51.238;9.562;2023-07-30T14:58:13;22.50;80.20
3416;DHT22;1721;51.238;9.562;2023-07-30T15:00:39;22.30;81.20
3416;DHT22;1721;51.238;9.562;2023-07-30T15:03:05;22.30;81.10
3416;DHT22;1721;51.238;9.562;2023-07-30T15:05:31;22.30;80.60
3416;DHT22;1721;51.238;9.562;2023-07-30T15:07:58;22.30;80.30
3416;DHT22;1721;51.238;9.562;2023-07-30T15:10:23;22.20;79.00
3416;DHT22;1721;51.238;9.562;2023-07-30T15:12:49;22.20;81.50
3416;DHT22;1721;51.238;9.562;2023-07-30T15:15:14;22.20;80.20
3416;DHT22;1721;51.238;9.562;2023-07-30T15:17:40;22.10;82.80
3416;DHT22;1721;51.238;9.562;2023-07-30T15:20:06;22.10;83.00
3416;DHT22;1721;51.238;9.562;2023-07-30T15:22:31;21.90;80.40
3416;DHT22;1721;51.238;9.562;2023-07-30T15:24:57;21.80;81.20
3416;DHT22;1721;51.238;9.562;2023-07-30T15:27:22;21.70;80.00
3416;DHT22;1721;51.238;9.562;2023-07-30T15:29:48;21.70;81.20
3416;DHT22;1721;51.238;9.562;2023-07-30T15:32:14;21.80;81.10
3416;DHT22;1721;51.238;9.562;2023-07-30T15:34:39;21.90;82.10
3416;DHT22;1721;51.238;9.562;2023-07-30T15:37:05;21.90;81.80
3416;DHT22;1721;51.238;9.562;2023-07-30T15:39:31;22.00;82.80
3416;DHT22;1721;51.238;9.562;2023-07-30T15:42:00;21.90;82.40
3416;DHT22;1721;51.238;9.562;2023-07-30T15:44:26;21.90;81.30
3416;DHT22;1721;51.238;9.562;2023-07-30T15:46:52;21.80;82.80
3416;DHT22;1721;51.238;9.562;2023-07-30T15:49:17;21.80;84.30
3416;DHT22;1721;51.238;9.562;2023-07-30T15:51:43;21.80;82.80
3416;DHT22;1721;51.238;9.562;2023-07-30T15:54:08;21.90;84.90
3416;DHT22;1721;51.238;9.562;2023-07-30T15:56:34;21.90;82.50
3416;DHT22;1721;51.238;9.562;2023-07-30T15:59:00;21.80;81.10